sensor_id;sensor_type;location;lat;lon;timestamp;pressure;altitude;pressure_sealevel;temperature;humidity
47524;BME280;33253;42.144;25.884;2022-08-01T00:00:21;99938.34;;;23.30;96.26
47524;BME280;33253;42.144;25.884;2022-08-01T00:02:47;100010.06;;;23.79;96.44
47524;BME280;33253;42.144;25.884;2022-08-01T00:05:12;100028.47;;;23.81;97.15
47524;BME280;33253;42.144;25.884;2022-08-01T00:07:38;100032.09;;;23.75;97.83
47524;BME280;33253;42.144;25.884;2022-08-01T00:10:05;100021.09;;;23.57;97.87
47524;BME280;33253;42.144;25.884;2022-08-01T00:12:31;100007.00;;;23.22;98.87
47524;BME280;33253;42.144;25.884;2022-08-01T00:14:56;100027.84;;;23.33;100.00
47524;BME280;33253;42.144;25.884;2022-08-01T00:17:22;100022.81;;;23.22;100.00
47524;BME280;33253;42.144;25.884;2022-08-01T00:22:23;99976.75;;;23.00;98.95
47524;BME280;33253;42.144;25.884;2022-08-01T00:24:48;99990.59;;;23.09;98.71
47524;BME280;33253;42.144;25.884;2022-08-01T00:27:14;100027.69;;;23.39;98.15
47524;BME280;33253;42.144;25.884;2022-08-01T00:29:39;100017.81;;;23.48;97.99
47524;BME280;33253;42.144;25.884;2022-08-01T00:32:05;100022.47;;;23.38;97.93
47524;BME280;33253;42.144;25.884;2022-08-01T00:34:30;100030.25;;;23.42;98.91
47524;BME280;33253;42.144;25.884;2022-08-01T00:36:56;100019.84;;;23.38;99.14
47524;BME280;33253;42.144;25.884;2022-08-01T00:39:21;100031.19;;;23.40;98.33
47524;BME280;33253;42.144;25.884;2022-08-01T00:41:47;100007.28;;;23.08;99.77
47524;BME280;33253;42.144;25.884;2022-08-01T00:44:12;100008.97;;;23.11;100.00
47524;BME280;33253;42.144;25.884;2022-08-01T00:46:38;99969.31;;;22.80;99.85
47524;BME280;33253;42.144;25.884;2022-08-01T00:49:03;100015.03;;;22.75;100.00
47524;BME280;33253;42.144;25.884;2022-08-01T00:51:29;100015.22;;;22.65;100.00
47524;BME280;33253;42.144;25.884;2022-08-01T00:53:55;99975.25;;;22.47;100.00
47524;BME280;33253;42.144;25.884;2022-08-01T00:56:21;99965.81;;;22.34;100.00
47524;BME280;33253;42.144;25.884;2022-08-01T00:58:48;100006.69;;;22.52;100.00
47524;BME280;33253;42.144;25.884;2022-08-01T01:01:14;100006.66;;;22.55;100.00
47524;BME280;33253;42.144;25.884;2022-08-01T01:03:40;100016.03;;;22.67;100.00
47524;BME280;33253;42.144;25.884;2022-08-01T01:06:40;100018.72;;;22.65;100.00
47524;BME280;33253;42.144;25.884;2022-08-01T01:09:38;100015.31;;;22.60;100.00
47524;BME280;33253;42.144;25.884;2022-08-01T01:17:54;100021.50;;;22.57;100.00
47524;BME280;33253;42.144;25.884;2022-08-01T01:20:24;100025.00;;;22.59;100.00
47524;BME280;33253;42.144;25.884;2022-08-01T01:29:00;99953.72;;;22.25;100.00
47524;BME280;33253;42.144;25.884;2022-08-01T01:31:27;100015.22;;;22.65;100.00
47524;BME280;33253;42.144;25.884;2022-08-01T01:33:55;99960.50;;;22.37;100.00
47524;BME280;33253;42.144;25.884;2022-08-01T01:36:24;100022.19;;;22.67;100.00
47524;BME280;33253;42.144;25.884;2022-08-01T01:38:52;99957.94;;;22.34;100.00
47524;BME280;33253;42.144;25.884;2022-08-01T01:41:19;100009.22;;;22.58;100.00
47524;BME280;33253;42.144;25.884;2022-08-01T01:43:46;99954.50;;;22.30;100.00
47524;BME280;33253;42.144;25.884;2022-08-01T01:46:16;100005.53;;;22.67;100.00
47524;BME280;33253;42.144;25.884;2022-08-01T01:48:43;100014.22;;;22.70;100.00
47524;BME280;33253;42.144;25.884;2022-08-01T01:51:11;100002.03;;;22.66;100.00
47524;BME280;33253;42.144;25.884;2022-08-01T01:53:39;99994.00;;;22.72;100.00
47524;BME280;33253;42.144;25.884;2022-08-01T01:56:06;99970.56;;;22.61;99.88
47524;BME280;33253;42.144;25.884;2022-08-01T01:58:34;99981.66;;;22.76;99.72
47524;BME280;33253;42.144;25.884;2022-08-01T02:01:02;99998.69;;;22.59;100.00
47524;BME280;33253;42.144;25.884;2022-08-01T02:03:29;99964.22;;;22.26;100.00
47524;BME280;33253;42.144;25.884;2022-08-01T02:05:56;99961.66;;;22.23;100.00
47524;BME280;33253;42.144;25.884;2022-08-01T02:08:23;99956.44;;;22.20;100.00
47524;BME280;33253;42.144;25.884;2022-08-01T02:10:52;99955.59;;;22.20;100.00
47524;BME280;33253;42.144;25.884;2022-08-01T02:13:38;99988.53;;;22.41;100.00
47524;BME280;33253;42.144;25.884;2022-08-01T02:16:05;99962.53;;;22.22;100.00
47524;BME280;33253;42.144;25.884;2022-08-01T02:18:32;99962.59;;;22.21;100.00
47524;BME280;33253;42.144;25.884;2022-08-01T02:20:58;99996.69;;;22.24;100.00
47524;BME280;33253;42.144;25.884;2022-08-01T02:23:30;99987.25;;;22.13;100.00
47524;BME280;33253;42.144;25.884;2022-08-01T02:25:58;99989.91;;;22.10;100.00
47524;BME280;33253;42.144;25.884;2022-08-01T02:28:29;99998.47;;;22.22;100.00
47524;BME280;33253;42.144;25.884;2022-08-01T02:31:06;99982.91;;;22.11;100.00
47524;BME280;33253;42.144;25.884;2022-08-01T02:33:37;99982.72;;;22.20;100.00
47524;BME280;33253;42.144;25.884;2022-08-01T02:36:03;99967.09;;;22.12;100.00
47524;BME280;33253;42.144;25.884;2022-08-01T02:38:32;99962.94;;;22.02;100.00
47524;BME280;33253;42.144;25.884;2022-08-01T02:41:03;99848.69;;;21.23;100.00
47524;BME280;33253;42.144;25.884;2022-08-01T02:43:32;99976.28;;;21.90;100.00
47524;BME280;33253;42.144;25.884;2022-08-01T02:46:01;99921.31;;;21.23;100.00
47524;BME280;33253;42.144;25.884;2022-08-01T02:48:30;99986.88;;;21.29;100.00
47524;BME280;33253;42.144;25.884;2022-08-01T02:50:58;99978.59;;;20.94;100.00
47524;BME280;33253;42.144;25.884;2022-08-01T02:53:26;99979.66;;;20.82;100.00
47524;BME280;33253;42.144;25.884;2022-08-01T02:55:53;99980.63;;;20.72;100.00
47524;BME280;33253;42.144;25.884;2022-08-01T02:58:20;99984.06;;;20.79;100.00
47524;BME280;33253;42.144;25.884;2022-08-01T03:00:49;99976.41;;;20.60;100.00
47524;BME280;33253;42.144;25.884;2022-08-01T03:03:15;99971.22;;;20.54;100.00
47524;BME280;33253;42.144;25.884;2022-08-01T03:05:43;99970.38;;;20.50;100.00
47524;BME280;33253;42.144;25.884;2022-08-01T03:08:10;99965.56;;;20.12;100.00
47524;BME280;33253;42.144;25.884;2022-08-01T03:10:38;99984.13;;;19.92;100.00
47524;BME280;33253;42.144;25.884;2022-08-01T03:13:06;99982.53;;;19.70;100.00
47524;BME280;33253;42.144;25.884;2022-08-01T03:15:36;99986.84;;;19.78;100.00
47524;BME280;33253;42.144;25.884;2022-08-01T03:18:04;99971.19;;;19.71;100.00
47524;BME280;33253;42.144;25.884;2022-08-01T03:20:32;99931.13;;;19.57;100.00
47524;BME280;33253;42.144;25.884;2022-08-01T03:23:00;99991.16;;;19.86;100.00
47524;BME280;33253;42.144;25.884;2022-08-01T03:25:27;99967.66;;;19.74;100.00
47524;BME280;33253;42.144;25.884;2022-08-01T03:27:56;99974.59;;;19.83;100.00
47524;BME280;33253;42.144;25.884;2022-08-01T03:30:26;99993.75;;;19.88;100.00
47524;BME280;33253;42.144;25.884;2022-08-01T03:32:52;99996.41;;;19.83;100.00
47524;BME280;33253;42.144;25.884;2022-08-01T03:35:18;99988.53;;;19.79;100.00
47524;BME280;33253;42.144;25.884;2022-08-01T03:37:46;99987.84;;;19.60;100.00
47524;BME280;33253;42.144;25.884;2022-08-01T03:40:23;99999.31;;;19.43;100.00
47524;BME280;33253;42.144;25.884;2022-08-01T03:42:53;99977.63;;;19.22;100.00
47524;BME280;33253;42.144;25.884;2022-08-01T03:45:25;99991.50;;;19.37;100.00
47524;BME280;33253;42.144;25.884;2022-08-01T03:47:57;99955.81;;;19.25;100.00
47524;BME280;33253;42.144;25.884;2022-08-01T03:50:24;99931.63;;;18.86;100.00
47524;BME280;33253;42.144;25.884;2022-08-01T03:52:50;99942.09;;;18.84;100.00
47524;BME280;33253;42.144;25.884;2022-08-01T03:55:18;99935.09;;;18.88;100.00
47524;BME280;33253;42.144;25.884;2022-08-01T03:57:46;99965.50;;;19.15;100.00
47524;BME280;33253;42.144;25.884;2022-08-01T04:00:13;99985.38;;;19.36;100.00
47524;BME280;33253;42.144;25.884;2022-08-01T04:02:45;99987.97;;;19.43;100.00
47524;BME280;33253;42.144;25.884;2022-08-01T04:05:11;99973.13;;;19.45;100.00
47524;BME280;33253;42.144;25.884;2022-08-01T04:07:36;99981.00;;;19.43;100.00
47524;BME280;33253;42.144;25.884;2022-08-01T04:10:05;99994.97;;;19.37;100.00
47524;BME280;33253;42.144;25.884;2022-08-01T04:12:30;99997.66;;;19.28;100.00
47524;BME280;33253;42.144;25.884;2022-08-01T04:14:56;99988.19;;;19.12;100.00
47524;BME280;33253;42.144;25.884;2022-08-01T04:17:21;99984.66;;;19.17;100.00
47524;BME280;33253;42.144;25.884;2022-08-01T04:19:47;99993.31;;;19.26;100.00
47524;BME280;33253;42.144;25.884;2022-08-01T04:22:14;99982.97;;;19.04;100.00
47524;BME280;33253;42.144;25.884;2022-08-01T04:24:42;99946.41;;;18.85;100.00
47524;BME280;33253;42.144;25.884;2022-08-01T04:27:15;99998.50;;;19.35;100.00
47524;BME280;33253;42.144;25.884;2022-08-01T04:29:43;99987.22;;;19.25;100.00
47524;BME280;33253;42.144;25.884;2022-08-01T04:32:11;100001.97;;;19.37;100.00
47524;BME280;33253;42.144;25.884;2022-08-01T04:34:39;100020.22;;;19.49;100.00
47524;BME280;33253;42.144;25.884;2022-08-01T04:37:09;100016.59;;;19.66;100.00
47524;BME280;33253;42.144;25.884;2022-08-01T04:39:37;100015.75;;;19.65;100.00
47524;BME280;33253;42.144;25.884;2022-08-01T04:42:05;99988.69;;;19.63;100.00
47524;BME280;33253;42.144;25.884;2022-08-01T04:44:32;99989.50;;;19.70;100.00
47524;BME280;33253;42.144;25.884;2022-08-01T04:46:59;100006.00;;;19.81;100.00
47524;BME280;33253;42.144;25.884;2022-08-01T04:49:28;100011.34;;;19.69;100.00
47524;BME280;33253;42.144;25.884;2022-08-01T04:51:55;100001.75;;;19.66;100.00
47524;BME280;33253;42.144;25.884;2022-08-01T04:54:26;99994.78;;;19.65;100.00
47524;BME280;33253;42.144;25.884;2022-08-01T04:56:54;100010.34;;;19.87;100.00
47524;BME280;33253;42.144;25.884;2022-08-01T04:59:27;100005.03;;;19.98;99.33
47524;BME280;33253;42.144;25.884;2022-08-01T05:02:05;100008.38;;;20.11;98.05
47524;BME280;33253;42.144;25.884;2022-08-01T05:04:31;100000.50;;;20.12;96.90
47524;BME280;33253;42.144;25.884;2022-08-01T05:06:56;99992.59;;;20.20;94.38
47524;BME280;33253;42.144;25.884;2022-08-01T05:09:22;100001.97;;;20.41;95.88
47524;BME280;33253;42.144;25.884;2022-08-01T05:11:47;100003.63;;;20.47;94.46
47524;BME280;33253;42.144;25.884;2022-08-01T05:14:13;100005.41;;;20.45;94.34
47524;BME280;33253;42.144;25.884;2022-08-01T05:16:38;100008.94;;;20.42;95.22
47524;BME280;33253;42.144;25.884;2022-08-01T05:19:03;100008.78;;;20.55;96.01
47524;BME280;33253;42.144;25.884;2022-08-01T05:21:29;99995.81;;;20.42;97.24
47524;BME280;33253;42.144;25.884;2022-08-01T05:23:54;99993.13;;;20.48;96.38
47524;BME280;33253;42.144;25.884;2022-08-01T05:26:20;100007.84;;;20.62;98.33
47524;BME280;33253;42.144;25.884;2022-08-01T05:28:45;99980.94;;;20.47;95.82
47524;BME280;33253;42.144;25.884;2022-08-01T05:31:11;99968.69;;;20.45;96.38
47524;BME280;33253;42.144;25.884;2022-08-01T05:33:36;99905.31;;;20.09;93.91
47524;BME280;33253;42.144;25.884;2022-08-01T05:36:02;99998.13;;;20.73;96.51
47524;BME280;33253;42.144;25.884;2022-08-01T05:38:27;100008.44;;;20.87;93.79
47524;BME280;33253;42.144;25.884;2022-08-01T05:40:53;99963.06;;;20.79;95.00
47524;BME280;33253;42.144;25.884;2022-08-01T05:43:18;99978.63;;;20.93;93.66
47524;BME280;33253;42.144;25.884;2022-08-01T05:45:43;99957.78;;;20.82;91.74
47524;BME280;33253;42.144;25.884;2022-08-01T05:48:11;99991.50;;;21.11;92.38
47524;BME280;33253;42.144;25.884;2022-08-01T05:50:36;100006.00;;;21.36;93.10
47524;BME280;33253;42.144;25.884;2022-08-01T05:53:02;100013.63;;;21.53;90.47
47524;BME280;33253;42.144;25.884;2022-08-01T05:55:27;100012.56;;;21.68;88.99
47524;BME280;33253;42.144;25.884;2022-08-01T05:57:53;100010.63;;;21.79;90.17
47524;BME280;33253;42.144;25.884;2022-08-01T06:00:18;100017.63;;;21.80;88.25
47524;BME280;33253;42.144;25.884;2022-08-01T06:02:44;100001.88;;;21.77;89.45
47524;BME280;33253;42.144;25.884;2022-08-01T06:05:10;100011.50;;;21.79;84.67
47524;BME280;33253;42.144;25.884;2022-08-01T06:07:36;100008.69;;;21.90;85.45
47524;BME280;33253;42.144;25.884;2022-08-01T06:10:02;100000.88;;;21.87;84.71
47524;BME280;33253;42.144;25.884;2022-08-01T06:12:27;99957.31;;;21.71;83.91
47524;BME280;33253;42.144;25.884;2022-08-01T06:14:52;100008.22;;;22.18;85.38
47524;BME280;33253;42.144;25.884;2022-08-01T06:17:18;100013.03;;;22.41;82.42
47524;BME280;33253;42.144;25.884;2022-08-01T06:19:43;100005.34;;;22.29;80.17
47524;BME280;33253;42.144;25.884;2022-08-01T06:22:09;100009.69;;;22.33;80.39
47524;BME280;33253;42.144;25.884;2022-08-01T06:24:35;100001.72;;;22.36;78.39
47524;BME280;33253;42.144;25.884;2022-08-01T06:27:02;100002.38;;;22.49;78.11
47524;BME280;33253;42.144;25.884;2022-08-01T06:29:30;99869.66;;;21.76;78.87
47524;BME280;33253;42.144;25.884;2022-08-01T06:31:56;99986.69;;;22.44;80.25
47524;BME280;33253;42.144;25.884;2022-08-01T06:34:21;100001.31;;;22.59;80.11
47524;BME280;33253;42.144;25.884;2022-08-01T06:36:48;99977.88;;;22.47;76.84
47524;BME280;33253;42.144;25.884;2022-08-01T06:39:13;99936.91;;;22.34;79.00
47524;BME280;33253;42.144;25.884;2022-08-01T06:41:38;99986.09;;;22.74;78.09
47524;BME280;33253;42.144;25.884;2022-08-01T06:44:07;99987.59;;;22.86;77.18
47524;BME280;33253;42.144;25.884;2022-08-01T06:46:32;99984.78;;;22.93;75.64
47524;BME280;33253;42.144;25.884;2022-08-01T06:48:58;99968.81;;;23.01;77.07
47524;BME280;33253;42.144;25.884;2022-08-01T06:51:23;99943.53;;;22.96;75.56
47524;BME280;33253;42.144;25.884;2022-08-01T06:53:49;99922.47;;;22.96;75.70
47524;BME280;33253;42.144;25.884;2022-08-01T06:56:14;99964.66;;;23.32;74.60
47524;BME280;33253;42.144;25.884;2022-08-01T06:58:40;99971.13;;;23.54;75.34
47524;BME280;33253;42.144;25.884;2022-08-01T07:01:05;99958.75;;;23.58;68.14
47524;BME280;33253;42.144;25.884;2022-08-01T07:03:32;99953.00;;;23.42;69.42
47524;BME280;33253;42.144;25.884;2022-08-01T07:05:58;99932.94;;;23.36;71.66
47524;BME280;33253;42.144;25.884;2022-08-01T07:08:23;99964.56;;;23.71;72.05
47524;BME280;33253;42.144;25.884;2022-08-01T07:10:48;99959.09;;;23.79;69.54
47524;BME280;33253;42.144;25.884;2022-08-01T07:13:14;99907.19;;;23.48;68.66
47524;BME280;33253;42.144;25.884;2022-08-01T07:15:46;99935.53;;;23.74;71.37
47524;BME280;33253;42.144;25.884;2022-08-01T07:18:11;99952.75;;;23.86;66.48
47524;BME280;33253;42.144;25.884;2022-08-01T07:20:37;99950.91;;;23.89;69.54
47524;BME280;33253;42.144;25.884;2022-08-01T07:23:03;99912.22;;;23.90;69.78
47524;BME280;33253;42.144;25.884;2022-08-01T07:25:29;99948.59;;;24.12;67.98
47524;BME280;33253;42.144;25.884;2022-08-01T07:27:55;99930.25;;;24.07;67.69
47524;BME280;33253;42.144;25.884;2022-08-01T07:30:23;99944.69;;;24.27;68.87
47524;BME280;33253;42.144;25.884;2022-08-01T07:32:48;99938.50;;;24.28;71.11
47524;BME280;33253;42.144;25.884;2022-08-01T07:35:14;99927.78;;;24.32;67.41
47524;BME280;33253;42.144;25.884;2022-08-01T07:37:40;99903.53;;;24.19;63.14
47524;BME280;33253;42.144;25.884;2022-08-01T07:40:05;99935.03;;;24.55;62.78
47524;BME280;33253;42.144;25.884;2022-08-01T07:42:31;99939.16;;;24.66;62.69
47524;BME280;33253;42.144;25.884;2022-08-01T07:44:57;99908.72;;;24.54;62.36
47524;BME280;33253;42.144;25.884;2022-08-01T07:47:26;99943.03;;;24.84;61.32
47524;BME280;33253;42.144;25.884;2022-08-01T07:49:58;99943.75;;;24.89;64.98
47524;BME280;33253;42.144;25.884;2022-08-01T07:52:24;99945.44;;;24.92;60.22
47524;BME280;33253;42.144;25.884;2022-08-01T07:54:49;99932.00;;;24.99;63.01
47524;BME280;33253;42.144;25.884;2022-08-01T07:57:14;99927.88;;;24.91;59.52
47524;BME280;33253;42.144;25.884;2022-08-01T07:59:40;99909.63;;;24.83;58.28
47524;BME280;33253;42.144;25.884;2022-08-01T08:02:05;99888.41;;;24.86;58.36
47524;BME280;33253;42.144;25.884;2022-08-01T08:04:31;99885.88;;;24.83;56.39
47524;BME280;33253;42.144;25.884;2022-08-01T08:06:56;99911.34;;;25.12;56.66
47524;BME280;33253;42.144;25.884;2022-08-01T08:09:22;99899.91;;;25.12;54.52
47524;BME280;33253;42.144;25.884;2022-08-01T08:11:48;99941.00;;;25.49;52.18
47524;BME280;33253;42.144;25.884;2022-08-01T08:14:14;99929.66;;;25.45;51.52
47524;BME280;33253;42.144;25.884;2022-08-01T08:16:40;99940.47;;;25.64;52.27
47524;BME280;33253;42.144;25.884;2022-08-01T08:19:05;99920.09;;;25.68;50.88
47524;BME280;33253;42.144;25.884;2022-08-01T08:21:30;99930.78;;;25.90;52.00
47524;BME280;33253;42.144;25.884;2022-08-01T08:23:58;99906.91;;;25.92;45.27
47524;BME280;33253;42.144;25.884;2022-08-01T08:26:41;99927.88;;;25.98;49.04
47524;BME280;33253;42.144;25.884;2022-08-01T08:29:07;99908.72;;;25.91;48.12
47524;BME280;33253;42.144;25.884;2022-08-01T08:31:32;99894.34;;;25.98;46.99
47524;BME280;33253;42.144;25.884;2022-08-01T08:33:58;99937.72;;;26.20;44.26
47524;BME280;33253;42.144;25.884;2022-08-01T08:36:23;99928.00;;;26.20;44.81
47524;BME280;33253;42.144;25.884;2022-08-01T08:38:49;99929.50;;;26.27;44.91
47524;BME280;33253;42.144;25.884;2022-08-01T08:41:15;99905.75;;;26.26;44.85
47524;BME280;33253;42.144;25.884;2022-08-01T08:43:40;99909.22;;;26.50;46.04
47524;BME280;33253;42.144;25.884;2022-08-01T08:46:07;99890.59;;;26.53;45.17
47524;BME280;33253;42.144;25.884;2022-08-01T08:48:34;99926.00;;;26.73;45.71
47524;BME280;33253;42.144;25.884;2022-08-01T08:51:01;99905.44;;;26.57;45.92
47524;BME280;33253;42.144;25.884;2022-08-01T08:53:47;99912.22;;;26.64;46.70
47524;BME280;33253;42.144;25.884;2022-08-01T08:56:13;99857.53;;;26.63;46.68
47524;BME280;33253;42.144;25.884;2022-08-01T08:58:44;99849.66;;;26.62;44.62
47524;BME280;33253;42.144;25.884;2022-08-01T09:01:11;99883.16;;;26.87;48.00
47524;BME280;33253;42.144;25.884;2022-08-01T09:03:38;99898.84;;;27.13;44.91
47524;BME280;33253;42.144;25.884;2022-08-01T09:06:03;99876.13;;;27.08;45.29
47524;BME280;33253;42.144;25.884;2022-08-01T09:08:29;99893.34;;;27.18;46.14
47524;BME280;33253;42.144;25.884;2022-08-01T09:10:55;99882.09;;;27.13;44.05
47524;BME280;33253;42.144;25.884;2022-08-01T09:13:21;99863.78;;;27.07;44.60
47524;BME280;33253;42.144;25.884;2022-08-01T09:15:49;99899.66;;;27.36;44.45
47524;BME280;33253;42.144;25.884;2022-08-01T09:18:32;99876.03;;;27.32;41.99
47524;BME280;33253;42.144;25.884;2022-08-01T09:21:12;99899.50;;;27.41;41.46
47524;BME280;33253;42.144;25.884;2022-08-01T09:23:48;99885.25;;;27.43;42.58
47524;BME280;33253;42.144;25.884;2022-08-01T09:26:18;99878.66;;;27.32;41.88
47524;BME280;33253;42.144;25.884;2022-08-01T09:28:47;99885.59;;;27.56;40.93
47524;BME280;33253;42.144;25.884;2022-08-01T09:31:15;99884.34;;;27.44;41.04
47524;BME280;33253;42.144;25.884;2022-08-01T09:33:55;99874.38;;;27.50;42.58
47524;BME280;33253;42.144;25.884;2022-08-01T09:36:26;99866.88;;;27.80;41.98
47524;BME280;33253;42.144;25.884;2022-08-01T09:38:53;99798.28;;;27.31;42.18
47524;BME280;33253;42.144;25.884;2022-08-01T09:41:32;99808.25;;;27.47;40.90
47524;BME280;33253;42.144;25.884;2022-08-01T09:43:58;99881.41;;;27.92;40.94
47524;BME280;33253;42.144;25.884;2022-08-01T09:46:25;99842.34;;;27.75;41.27
47524;BME280;33253;42.144;25.884;2022-08-01T09:49:05;99860.38;;;28.27;44.83
47524;BME280;33253;42.144;25.884;2022-08-01T09:53:59;99812.34;;;27.54;40.28
47524;BME280;33253;42.144;25.884;2022-08-01T09:56:25;99866.97;;;28.37;39.01
47524;BME280;33253;42.144;25.884;2022-08-01T09:58:57;99878.03;;;28.47;39.46
47524;BME280;33253;42.144;25.884;2022-08-01T10:01:24;99826.81;;;28.07;40.17
47524;BME280;33253;42.144;25.884;2022-08-01T10:04:14;99854.34;;;28.62;39.41
47524;BME280;33253;42.144;25.884;2022-08-01T10:06:41;99868.81;;;28.93;40.33
47524;BME280;33253;42.144;25.884;2022-08-01T10:09:12;99869.38;;;29.17;39.58
47524;BME280;33253;42.144;25.884;2022-08-01T10:11:41;99863.84;;;29.21;37.42
47524;BME280;33253;42.144;25.884;2022-08-01T10:14:07;99859.44;;;28.66;38.66
47524;BME280;33253;42.144;25.884;2022-08-01T10:16:34;99862.63;;;28.92;39.73
47524;BME280;33253;42.144;25.884;2022-08-01T10:19:03;99859.72;;;29.33;43.06
47524;BME280;33253;42.144;25.884;2022-08-01T10:21:32;99874.28;;;29.61;41.17
47524;BME280;33253;42.144;25.884;2022-08-01T10:23:58;99836.00;;;28.94;38.47
47524;BME280;33253;42.144;25.884;2022-08-01T10:26:25;99861.03;;;29.25;36.69
47524;BME280;33253;42.144;25.884;2022-08-01T10:28:52;99866.44;;;29.58;36.51
47524;BME280;33253;42.144;25.884;2022-08-01T10:31:19;99843.22;;;29.62;37.30
47524;BME280;33253;42.144;25.884;2022-08-01T10:33:44;99854.78;;;29.96;37.78
47524;BME280;33253;42.144;25.884;2022-08-01T10:36:10;99845.28;;;30.24;38.59
47524;BME280;33253;42.144;25.884;2022-08-01T10:38:36;99843.66;;;30.37;39.66
47524;BME280;33253;42.144;25.884;2022-08-01T10:41:03;99850.25;;;30.30;35.04
47524;BME280;33253;42.144;25.884;2022-08-01T10:43:29;99837.63;;;30.17;36.05
47524;BME280;33253;42.144;25.884;2022-08-01T10:45:55;99832.22;;;30.35;34.82
47524;BME280;33253;42.144;25.884;2022-08-01T10:50:54;99807.53;;;29.66;35.34
47524;BME280;33253;42.144;25.884;2022-08-01T10:53:24;99847.44;;;29.66;34.97
47524;BME280;33253;42.144;25.884;2022-08-01T10:58:27;99811.09;;;30.16;38.11
47524;BME280;33253;42.144;25.884;2022-08-01T11:01:26;99838.81;;;30.28;34.10
47524;BME280;33253;42.144;25.884;2022-08-01T11:06:25;99801.81;;;30.71;36.32
47524;BME280;33253;42.144;25.884;2022-08-01T11:08:53;99844.19;;;30.60;32.80
47524;BME280;33253;42.144;25.884;2022-08-01T11:11:21;99833.63;;;31.05;32.35
47524;BME280;33253;42.144;25.884;2022-08-01T11:14:01;99826.16;;;30.95;32.57
47524;BME280;33253;42.144;25.884;2022-08-01T11:16:34;99828.53;;;30.70;34.29
47524;BME280;33253;42.144;25.884;2022-08-01T11:19:04;99822.16;;;30.88;36.15
47524;BME280;33253;42.144;25.884;2022-08-01T11:21:57;99817.63;;;31.21;33.35
47524;BME280;33253;42.144;25.884;2022-08-01T11:27:31;99819.34;;;31.06;34.83
47524;BME280;33253;42.144;25.884;2022-08-01T11:32:56;99821.97;;;30.75;35.31
47524;BME280;33253;42.144;25.884;2022-08-01T11:35:23;99782.66;;;30.32;34.91
47524;BME280;33253;42.144;25.884;2022-08-01T11:37:51;99774.59;;;30.50;33.53
47524;BME280;33253;42.144;25.884;2022-08-01T11:42:50;99817.78;;;31.02;34.56
47524;BME280;33253;42.144;25.884;2022-08-01T11:48:20;99766.97;;;30.74;35.12
47524;BME280;33253;42.144;25.884;2022-08-01T11:50:46;99802.03;;;31.43;35.44
47524;BME280;33253;42.144;25.884;2022-08-01T11:53:12;99759.50;;;31.11;36.53
47524;BME280;33253;42.144;25.884;2022-08-01T11:55:49;99789.84;;;31.39;35.09
47524;BME280;33253;42.144;25.884;2022-08-01T11:58:35;99765.16;;;31.05;34.97
47524;BME280;33253;42.144;25.884;2022-08-01T12:01:05;99812.22;;;30.90;35.15
47524;BME280;33253;42.144;25.884;2022-08-01T12:03:31;99814.75;;;30.77;36.24
47524;BME280;33253;42.144;25.884;2022-08-01T12:06:01;99810.59;;;30.88;36.21
47524;BME280;33253;42.144;25.884;2022-08-01T12:08:28;99810.28;;;30.78;33.87
47524;BME280;33253;42.144;25.884;2022-08-01T12:10:54;99789.84;;;30.46;35.35
47524;BME280;33253;42.144;25.884;2022-08-01T12:13:21;99776.97;;;30.23;36.03
47524;BME280;33253;42.144;25.884;2022-08-01T12:15:49;99790.22;;;29.92;33.76
47524;BME280;33253;42.144;25.884;2022-08-01T12:18:15;99797.50;;;30.21;34.04
47524;BME280;33253;42.144;25.884;2022-08-01T12:20:43;99764.25;;;30.12;36.12
47524;BME280;33253;42.144;25.884;2022-08-01T12:23:13;99789.84;;;30.46;35.12
47524;BME280;33253;42.144;25.884;2022-08-01T12:25:40;99802.50;;;30.59;36.07
47524;BME280;33253;42.144;25.884;2022-08-01T12:28:08;99781.19;;;30.59;34.11
47524;BME280;33253;42.144;25.884;2022-08-01T12:30:35;99765.47;;;30.38;34.76
47524;BME280;33253;42.144;25.884;2022-08-01T12:33:08;99799.00;;;30.58;34.52
47524;BME280;33253;42.144;25.884;2022-08-01T12:35:36;99799.13;;;30.39;36.54
47524;BME280;33253;42.144;25.884;2022-08-01T12:38:05;99790.31;;;30.55;34.46
47524;BME280;33253;42.144;25.884;2022-08-01T12:40:33;99801.53;;;30.76;37.16
47524;BME280;33253;42.144;25.884;2022-08-01T12:43:04;99798.13;;;31.04;36.17
47524;BME280;33253;42.144;25.884;2022-08-01T12:45:34;99786.25;;;31.10;33.04
47524;BME280;33253;42.144;25.884;2022-08-01T12:48:00;99800.50;;;31.39;33.69
47524;BME280;33253;42.144;25.884;2022-08-01T12:50:30;99791.78;;;31.66;34.35
47524;BME280;33253;42.144;25.884;2022-08-01T12:52:57;99782.72;;;31.83;34.49
47524;BME280;33253;42.144;25.884;2022-08-01T12:55:24;99786.88;;;31.58;33.23
47524;BME280;33253;42.144;25.884;2022-08-01T12:58:07;99729.91;;;31.00;32.26
47524;BME280;33253;42.144;25.884;2022-08-01T13:00:34;99785.75;;;31.48;33.71
47524;BME280;33253;42.144;25.884;2022-08-01T13:03:05;99712.66;;;30.77;34.05
47524;BME280;33253;42.144;25.884;2022-08-01T13:05:54;99776.19;;;30.69;34.45
47524;BME280;33253;42.144;25.884;2022-08-01T13:11:02;99788.13;;;30.77;33.67
47524;BME280;33253;42.144;25.884;2022-08-01T13:13:47;99747.78;;;30.84;32.45
47524;BME280;33253;42.144;25.884;2022-08-01T13:16:13;99784.50;;;31.39;35.34
47524;BME280;33253;42.144;25.884;2022-08-01T13:18:39;99775.72;;;31.95;33.47
47524;BME280;33253;42.144;25.884;2022-08-01T13:21:14;99777.28;;;31.85;32.29
47524;BME280;33253;42.144;25.884;2022-08-01T13:23:59;99782.34;;;31.89;32.38
47524;BME280;33253;42.144;25.884;2022-08-01T13:26:44;99672.38;;;31.26;31.87
47524;BME280;33253;42.144;25.884;2022-08-01T13:29:13;99781.00;;;31.08;31.48